sensor_id;sensor_type;location;lat;lon;timestamp;P1;durP1;ratioP1;P2;durP2;ratioP2
24995;SDS011;13016;52.162;21.034;2023-04-03T00:02:09;2.90;;;1.70;;
24995;SDS011;13016;52.162;21.034;2023-04-03T00:08:10;3.90;;;1.60;;
24995;SDS011;13016;52.162;21.034;2023-04-03T00:14:10;5.40;;;1.60;;
24995;SDS011;13016;52.162;21.034;2023-04-03T00:20:10;6.90;;;1.80;;
24995;SDS011;13016;52.162;21.034;2023-04-03T00:26:11;3.10;;;1.60;;
24995;SDS011;13016;52.162;21.034;2023-04-03T00:32:11;4.00;;;1.50;;
24995;SDS011;13016;52.162;21.034;2023-04-03T00:38:12;4.00;;;1.60;;
24995;SDS011;13016;52.162;21.034;2023-04-03T00:50:42;2.50;;;1.40;;
24995;SDS011;13016;52.162;21.034;2023-04-03T00:56:44;3.00;;;1.30;;
24995;SDS011;13016;52.162;21.034;2023-04-03T01:02:44;4.20;;;2.00;;
24995;SDS011;13016;52.162;21.034;2023-04-03T01:08:45;3.10;;;1.30;;
24995;SDS011;13016;52.162;21.034;2023-04-03T01:14:50;4.20;;;1.40;;
24995;SDS011;13016;52.162;21.034;2023-04-03T01:26:55;2.00;;;1.40;;
24995;SDS011;13016;52.162;21.034;2023-04-03T01:32:56;3.80;;;1.30;;
24995;SDS011;13016;52.162;21.034;2023-04-03T01:38:57;1.40;;;1.10;;
24995;SDS011;13016;52.162;21.034;2023-04-03T01:44:58;1.80;;;1.10;;
24995;SDS011;13016;52.162;21.034;2023-04-03T01:50:59;1.80;;;1.30;;
24995;SDS011;13016;52.162;21.034;2023-04-03T01:56:59;3.40;;;1.60;;
24995;SDS011;13016;52.162;21.034;2023-04-03T02:02:59;2.50;;;1.20;;
24995;SDS011;13016;52.162;21.034;2023-04-03T02:09:00;1.80;;;1.10;;
24995;SDS011;13016;52.162;21.034;2023-04-03T02:15:00;7.80;;;1.40;;
24995;SDS011;13016;52.162;21.034;2023-04-03T02:21:01;3.00;;;1.20;;
24995;SDS011;13016;52.162;21.034;2023-04-03T02:27:01;2.90;;;1.80;;
24995;SDS011;13016;52.162;21.034;2023-04-03T02:33:01;4.10;;;1.30;;
24995;SDS011;13016;52.162;21.034;2023-04-03T02:39:02;3.40;;;1.50;;
24995;SDS011;13016;52.162;21.034;2023-04-03T02:45:03;7.80;;;1.20;;
24995;SDS011;13016;52.162;21.034;2023-04-03T02:51:04;3.80;;;1.80;;
24995;SDS011;13016;52.162;21.034;2023-04-03T02:57:04;2.00;;;1.00;;
24995;SDS011;13016;52.162;21.034;2023-04-03T03:03:04;3.40;;;1.40;;
24995;SDS011;13016;52.162;21.034;2023-04-03T03:09:05;1.60;;;1.20;;
24995;SDS011;13016;52.162;21.034;2023-04-03T03:15:06;2.70;;;1.30;;
24995;SDS011;13016;52.162;21.034;2023-04-03T03:21:06;1.90;;;1.20;;
24995;SDS011;13016;52.162;21.034;2023-04-03T03:27:07;3.20;;;1.20;;
24995;SDS011;13016;52.162;21.034;2023-04-03T03:33:07;2.30;;;1.30;;
24995;SDS011;13016;52.162;21.034;2023-04-03T03:39:07;2.70;;;1.20;;
24995;SDS011;13016;52.162;21.034;2023-04-03T03:45:08;3.40;;;1.30;;
24995;SDS011;13016;52.162;21.034;2023-04-03T03:51:09;1.90;;;1.20;;
24995;SDS011;13016;52.162;21.034;2023-04-03T03:57:09;5.10;;;1.60;;
24995;SDS011;13016;52.162;21.034;2023-04-03T04:03:09;2.50;;;1.40;;
24995;SDS011;13016;52.162;21.034;2023-04-03T04:09:10;3.10;;;1.20;;
24995;SDS011;13016;52.162;21.034;2023-04-03T04:15:10;2.00;;;1.30;;
24995;SDS011;13016;52.162;21.034;2023-04-03T04:21:10;1.50;;;1.20;;
24995;SDS011;13016;52.162;21.034;2023-04-03T04:27:11;3.90;;;1.30;;
24995;SDS011;13016;52.162;21.034;2023-04-03T04:33:11;2.30;;;1.40;;
24995;SDS011;13016;52.162;21.034;2023-04-03T04:39:11;2.80;;;1.40;;
24995;SDS011;13016;52.162;21.034;2023-04-03T04:45:12;4.10;;;1.50;;
24995;SDS011;13016;52.162;21.034;2023-04-03T04:51:12;3.90;;;1.40;;
24995;SDS011;13016;52.162;21.034;2023-04-03T04:57:13;2.10;;;1.30;;
24995;SDS011;13016;52.162;21.034;2023-04-03T05:03:13;4.10;;;1.70;;
24995;SDS011;13016;52.162;21.034;2023-04-03T05:09:14;4.70;;;1.40;;
24995;SDS011;13016;52.162;21.034;2023-04-03T05:21:15;2.20;;;1.30;;
24995;SDS011;13016;52.162;21.034;2023-04-03T05:27:16;2.40;;;1.30;;
24995;SDS011;13016;52.162;21.034;2023-04-03T05:33:16;1.80;;;1.30;;
24995;SDS011;13016;52.162;21.034;2023-04-03T05:39:16;2.80;;;1.50;;
24995;SDS011;13016;52.162;21.034;2023-04-03T05:45:17;4.20;;;1.70;;
24995;SDS011;13016;52.162;21.034;2023-04-03T05:51:18;3.60;;;1.50;;
24995;SDS011;13016;52.162;21.034;2023-04-03T05:57:22;3.90;;;1.60;;
24995;SDS011;13016;52.162;21.034;2023-04-03T06:03:22;3.70;;;1.60;;
24995;SDS011;13016;52.162;21.034;2023-04-03T06:09:24;2.90;;;1.70;;
24995;SDS011;13016;52.162;21.034;2023-04-03T06:15:26;4.70;;;1.70;;
24995;SDS011;13016;52.162;21.034;2023-04-03T06:21:26;2.20;;;1.40;;
24995;SDS011;13016;52.162;21.034;2023-04-03T06:27:27;5.70;;;1.90;;
24995;SDS011;13016;52.162;21.034;2023-04-03T06:33:27;3.20;;;1.70;;
24995;SDS011;13016;52.162;21.034;2023-04-03T06:39:27;4.00;;;1.60;;
24995;SDS011;13016;52.162;21.034;2023-04-03T06:45:28;3.40;;;1.70;;
24995;SDS011;13016;52.162;21.034;2023-04-03T06:51:29;2.40;;;1.40;;
24995;SDS011;13016;52.162;21.034;2023-04-03T07:03:30;2.80;;;1.40;;
24995;SDS011;13016;52.162;21.034;2023-04-03T07:09:30;3.10;;;1.80;;
24995;SDS011;13016;52.162;21.034;2023-04-03T07:15:30;3.80;;;1.80;;
24995;SDS011;13016;52.162;21.034;2023-04-03T07:21:31;2.60;;;1.50;;
24995;SDS011;13016;52.162;21.034;2023-04-03T07:27:31;10.60;;;2.00;;
24995;SDS011;13016;52.162;21.034;2023-04-03T07:33:32;2.50;;;1.50;;
24995;SDS011;13016;52.162;21.034;2023-04-03T07:39:33;2.70;;;2.00;;
24995;SDS011;13016;52.162;21.034;2023-04-03T07:45:36;5.50;;;1.80;;
24995;SDS011;13016;52.162;21.034;2023-04-03T07:51:37;2.50;;;1.80;;
24995;SDS011;13016;52.162;21.034;2023-04-03T07:57:37;4.20;;;1.60;;
24995;SDS011;13016;52.162;21.034;2023-04-03T08:03:38;4.20;;;1.50;;
24995;SDS011;13016;52.162;21.034;2023-04-03T08:15:39;3.40;;;1.50;;
24995;SDS011;13016;52.162;21.034;2023-04-03T08:21:40;3.60;;;2.00;;
24995;SDS011;13016;52.162;21.034;2023-04-03T08:27:40;3.10;;;1.70;;
24995;SDS011;13016;52.162;21.034;2023-04-03T08:33:41;3.90;;;1.70;;
24995;SDS011;13016;52.162;21.034;2023-04-03T08:39:41;3.20;;;1.60;;
24995;SDS011;13016;52.162;21.034;2023-04-03T08:45:44;2.30;;;1.40;;
24995;SDS011;13016;52.162;21.034;2023-04-03T08:51:51;4.80;;;1.60;;
24995;SDS011;13016;52.162;21.034;2023-04-03T08:57:55;2.20;;;1.40;;
24995;SDS011;13016;52.162;21.034;2023-04-03T09:04:01;2.40;;;1.10;;
24995;SDS011;13016;52.162;21.034;2023-04-03T09:10:10;7.10;;;1.60;;
24995;SDS011;13016;52.162;21.034;2023-04-03T09:16:48;3.10;;;1.40;;
24995;SDS011;13016;52.162;21.034;2023-04-03T09:22:41;2.30;;;1.20;;
24995;SDS011;13016;52.162;21.034;2023-04-03T09:28:43;1.50;;;1.10;;
24995;SDS011;13016;52.162;21.034;2023-04-03T09:34:43;2.10;;;1.10;;
24995;SDS011;13016;52.162;21.034;2023-04-03T09:40:46;1.50;;;1.40;;
24995;SDS011;13016;52.162;21.034;2023-04-03T09:46:48;2.60;;;1.50;;
24995;SDS011;13016;52.162;21.034;2023-04-03T09:52:50;4.50;;;1.30;;
24995;SDS011;13016;52.162;21.034;2023-04-03T10:05:25;2.30;;;1.30;;
24995;SDS011;13016;52.162;21.034;2023-04-03T10:11:25;2.00;;;1.30;;
24995;SDS011;13016;52.162;21.034;2023-04-03T10:23:46;2.40;;;1.20;;
24995;SDS011;13016;52.162;21.034;2023-04-03T10:36:22;2.70;;;1.50;;
24995;SDS011;13016;52.162;21.034;2023-04-03T10:42:55;2.80;;;1.40;;
24995;SDS011;13016;52.162;21.034;2023-04-03T10:55:31;1.60;;;1.10;;
24995;SDS011;13016;52.162;21.034;2023-04-03T11:01:37;2.50;;;1.40;;
24995;SDS011;13016;52.162;21.034;2023-04-03T11:07:43;2.50;;;1.40;;
24995;SDS011;13016;52.162;21.034;2023-04-03T11:26:22;2.10;;;1.30;;
24995;SDS011;13016;52.162;21.034;2023-04-03T11:32:30;3.30;;;1.20;;
24995;SDS011;13016;52.162;21.034;2023-04-03T11:38:42;2.20;;;1.20;;
24995;SDS011;13016;52.162;21.034;2023-04-03T11:44:45;2.70;;;1.40;;
24995;SDS011;13016;52.162;21.034;2023-04-03T11:50:46;1.80;;;1.10;;
24995;SDS011;13016;52.162;21.034;2023-04-03T11:56:48;1.60;;;1.20;;
24995;SDS011;13016;52.162;21.034;2023-04-03T12:02:50;2.30;;;1.40;;
24995;SDS011;13016;52.162;21.034;2023-04-03T12:08:50;3.70;;;1.80;;
24995;SDS011;13016;52.162;21.034;2023-04-03T12:14:54;1.50;;;1.20;;
24995;SDS011;13016;52.162;21.034;2023-04-03T12:20:55;2.00;;;1.40;;
24995;SDS011;13016;52.162;21.034;2023-04-03T12:33:17;3.60;;;1.10;;
24995;SDS011;13016;52.162;21.034;2023-04-03T12:39:37;1.70;;;1.20;;
24995;SDS011;13016;52.162;21.034;2023-04-03T12:52:17;3.90;;;1.10;;
24995;SDS011;13016;52.162;21.034;2023-04-03T12:58:25;3.40;;;1.10;;
24995;SDS011;13016;52.162;21.034;2023-04-03T13:04:27;4.10;;;1.40;;
24995;SDS011;13016;52.162;21.034;2023-04-03T13:10:29;3.90;;;1.80;;
24995;SDS011;13016;52.162;21.034;2023-04-03T13:16:52;2.40;;;1.40;;
24995;SDS011;13016;52.162;21.034;2023-04-03T13:22:58;6.70;;;1.30;;
24995;SDS011;13016;52.162;21.034;2023-04-03T13:29:03;2.70;;;1.20;;
24995;SDS011;13016;52.162;21.034;2023-04-03T13:35:26;2.00;;;1.20;;
24995;SDS011;13016;52.162;21.034;2023-04-03T13:41:32;2.70;;;1.30;;
24995;SDS011;13016;52.162;21.034;2023-04-03T13:47:38;3.80;;;1.40;;
24995;SDS011;13016;52.162;21.034;2023-04-03T13:59:57;3.90;;;1.40;;
24995;SDS011;13016;52.162;21.034;2023-04-03T14:05:58;2.70;;;1.10;;
24995;SDS011;13016;52.162;21.034;2023-04-03T14:12:00;1.90;;;1.20;;
24995;SDS011;13016;52.162;21.034;2023-04-03T14:18:05;4.00;;;1.20;;
24995;SDS011;13016;52.162;21.034;2023-04-03T14:24:05;1.70;;;1.10;;
24995;SDS011;13016;52.162;21.034;2023-04-03T14:30:08;1.30;;;1.20;;
24995;SDS011;13016;52.162;21.034;2023-04-03T14:36:20;1.90;;;1.10;;
24995;SDS011;13016;52.162;21.034;2023-04-03T14:42:25;2.50;;;1.00;;
24995;SDS011;13016;52.162;21.034;2023-04-03T14:48:36;3.90;;;1.20;;
24995;SDS011;13016;52.162;21.034;2023-04-03T14:54:37;1.70;;;1.30;;
24995;SDS011;13016;52.162;21.034;2023-04-03T15:00:37;2.40;;;1.30;;
24995;SDS011;13016;52.162;21.034;2023-04-03T15:06:37;1.50;;;1.10;;
24995;SDS011;13016;52.162;21.034;2023-04-03T15:12:37;2.00;;;1.30;;
24995;SDS011;13016;52.162;21.034;2023-04-03T15:18:38;1.90;;;1.20;;
24995;SDS011;13016;52.162;21.034;2023-04-03T15:24:38;1.70;;;1.10;;
24995;SDS011;13016;52.162;21.034;2023-04-03T15:30:39;5.00;;;1.60;;
24995;SDS011;13016;52.162;21.034;2023-04-03T15:36:39;2.10;;;1.40;;
24995;SDS011;13016;52.162;21.034;2023-04-03T15:42:40;4.00;;;1.50;;
24995;SDS011;13016;52.162;21.034;2023-04-03T15:48:40;3.20;;;1.40;;
24995;SDS011;13016;52.162;21.034;2023-04-03T15:54:41;1.90;;;1.40;;
24995;SDS011;13016;52.162;21.034;2023-04-03T16:00:41;2.50;;;1.70;;
24995;SDS011;13016;52.162;21.034;2023-04-03T16:06:42;2.60;;;1.40;;
24995;SDS011;13016;52.162;21.034;2023-04-03T16:12:42;3.70;;;1.50;;
24995;SDS011;13016;52.162;21.034;2023-04-03T16:18:46;2.60;;;1.50;;
24995;SDS011;13016;52.162;21.034;2023-04-03T16:24:47;3.30;;;1.30;;
24995;SDS011;13016;52.162;21.034;2023-04-03T16:30:47;2.10;;;1.20;;
24995;SDS011;13016;52.162;21.034;2023-04-03T16:36:48;2.30;;;1.20;;
24995;SDS011;13016;52.162;21.034;2023-04-03T16:42:48;2.60;;;1.30;;
24995;SDS011;13016;52.162;21.034;2023-04-03T16:48:49;1.60;;;1.40;;
24995;SDS011;13016;52.162;21.034;2023-04-03T16:54:49;2.00;;;1.50;;
24995;SDS011;13016;52.162;21.034;2023-04-03T17:00:49;2.60;;;1.30;;
24995;SDS011;13016;52.162;21.034;2023-04-03T17:06:50;2.80;;;1.60;;
24995;SDS011;13016;52.162;21.034;2023-04-03T17:12:51;1.90;;;1.50;;
24995;SDS011;13016;52.162;21.034;2023-04-03T17:18:52;2.70;;;1.60;;
24995;SDS011;13016;52.162;21.034;2023-04-03T17:24:53;3.10;;;1.70;;
24995;SDS011;13016;52.162;21.034;2023-04-03T17:30:57;1.70;;;1.20;;
24995;SDS011;13016;52.162;21.034;2023-04-03T17:36:59;2.40;;;2.00;;
24995;SDS011;13016;52.162;21.034;2023-04-03T17:43:00;2.70;;;1.60;;
24995;SDS011;13016;52.162;21.034;2023-04-03T17:49:00;3.70;;;1.80;;
24995;SDS011;13016;52.162;21.034;2023-04-03T17:55:01;2.40;;;1.70;;
24995;SDS011;13016;52.162;21.034;2023-04-03T18:01:20;1.60;;;1.50;;
24995;SDS011;13016;52.162;21.034;2023-04-03T18:07:23;3.90;;;1.70;;
24995;SDS011;13016;52.162;21.034;2023-04-03T18:13:24;2.00;;;1.50;;
24995;SDS011;13016;52.162;21.034;2023-04-03T18:19:25;3.50;;;1.70;;
24995;SDS011;13016;52.162;21.034;2023-04-03T18:25:26;3.40;;;1.90;;
24995;SDS011;13016;52.162;21.034;2023-04-03T18:31:26;3.90;;;2.00;;
24995;SDS011;13016;52.162;21.034;2023-04-03T18:37:29;2.90;;;2.20;;
24995;SDS011;13016;52.162;21.034;2023-04-03T18:43:29;3.40;;;2.20;;
24995;SDS011;13016;52.162;21.034;2023-04-03T18:49:31;4.40;;;2.40;;
24995;SDS011;13016;52.162;21.034;2023-04-03T18:55:36;4.80;;;2.50;;
24995;SDS011;13016;52.162;21.034;2023-04-03T19:01:37;4.20;;;2.50;;
24995;SDS011;13016;52.162;21.034;2023-04-03T19:07:37;2.80;;;2.10;;
24995;SDS011;13016;52.162;21.034;2023-04-03T19:13:38;4.10;;;2.60;;
24995;SDS011;13016;52.162;21.034;2023-04-03T19:19:38;4.60;;;2.80;;
24995;SDS011;13016;52.162;21.034;2023-04-03T19:25:38;4.60;;;2.80;;
24995;SDS011;13016;52.162;21.034;2023-04-03T19:31:39;6.00;;;3.90;;
24995;SDS011;13016;52.162;21.034;2023-04-03T19:37:39;5.70;;;3.30;;
24995;SDS011;13016;52.162;21.034;2023-04-03T19:43:40;5.30;;;3.50;;
24995;SDS011;13016;52.162;21.034;2023-04-03T19:49:40;5.00;;;3.10;;
24995;SDS011;13016;52.162;21.034;2023-04-03T19:55:41;5.50;;;3.70;;
24995;SDS011;13016;52.162;21.034;2023-04-03T20:01:41;5.80;;;3.60;;
24995;SDS011;13016;52.162;21.034;2023-04-03T20:07:42;5.90;;;3.50;;
24995;SDS011;13016;52.162;21.034;2023-04-03T20:13:43;4.70;;;3.50;;
24995;SDS011;13016;52.162;21.034;2023-04-03T20:19:43;5.80;;;3.80;;
24995;SDS011;13016;52.162;21.034;2023-04-03T20:25:44;5.50;;;3.70;;
24995;SDS011;13016;52.162;21.034;2023-04-03T20:31:46;6.20;;;3.70;;
24995;SDS011;13016;52.162;21.034;2023-04-03T20:37:46;6.40;;;4.10;;
24995;SDS011;13016;52.162;21.034;2023-04-03T20:43:47;7.80;;;3.40;;
24995;SDS011;13016;52.162;21.034;2023-04-03T20:49:47;6.10;;;3.80;;
24995;SDS011;13016;52.162;21.034;2023-04-03T20:55:56;6.70;;;4.10;;
24995;SDS011;13016;52.162;21.034;2023-04-03T21:01:58;5.20;;;3.50;;
24995;SDS011;13016;52.162;21.034;2023-04-03T21:21:16;9.00;;;4.00;;
24995;SDS011;13016;52.162;21.034;2023-04-03T21:27:17;5.30;;;3.10;;
24995;SDS011;13016;52.162;21.034;2023-04-03T21:33:17;4.80;;;3.20;;
24995;SDS011;13016;52.162;21.034;2023-04-03T21:39:17;5.60;;;2.90;;
24995;SDS011;13016;52.162;21.034;2023-04-03T21:51:19;6.80;;;3.40;;
24995;SDS011;13016;52.162;21.034;2023-04-03T21:57:19;6.30;;;3.50;;
24995;SDS011;13016;52.162;21.034;2023-04-03T22:03:19;5.10;;;3.30;;
24995;SDS011;13016;52.162;21.034;2023-04-03T22:09:20;7.50;;;3.20;;
24995;SDS011;13016;52.162;21.034;2023-04-03T22:15:20;11.10;;;7.00;;
24995;SDS011;13016;52.162;21.034;2023-04-03T22:21:20;5.60;;;2.70;;
24995;SDS011;13016;52.162;21.034;2023-04-03T22:27:21;4.10;;;2.60;;
24995;SDS011;13016;52.162;21.034;2023-04-03T22:33:21;4.70;;;2.70;;
24995;SDS011;13016;52.162;21.034;2023-04-03T22:39:22;5.30;;;2.80;;
24995;SDS011;13016;52.162;21.034;2023-04-03T22:45:22;6.50;;;2.80;;
24995;SDS011;13016;52.162;21.034;2023-04-03T22:51:22;4.40;;;3.20;;
24995;SDS011;13016;52.162;21.034;2023-04-03T22:57:23;4.70;;;2.90;;
24995;SDS011;13016;52.162;21.034;2023-04-03T23:03:23;4.20;;;2.90;;
24995;SDS011;13016;52.162;21.034;2023-04-03T23:09:24;5.40;;;3.00;;
24995;SDS011;13016;52.162;21.034;2023-04-03T23:15:24;7.10;;;3.00;;
24995;SDS011;13016;52.162;21.034;2023-04-03T23:21:25;6.20;;;2.80;;
24995;SDS011;13016;52.162;21.034;2023-04-03T23:27:27;7.00;;;3.00;;
24995;SDS011;13016;52.162;21.034;2023-04-03T23:33:28;5.30;;;2.80;;
24995;SDS011;13016;52.162;21.034;2023-04-03T23:39:30;5.60;;;2.60;;
24995;SDS011;13016;52.162;21.034;2023-04-03T23:45:30;3.90;;;2.40;;
24995;SDS011;13016;52.162;21.034;2023-04-03T23:51:30;4.90;;;2.70;;
24995;SDS011;13016;52.162;21.034;2023-04-03T23:57:31;5.00;;;3.00;;
